Time;durP1;ratioP1;P1;durP2;ratioP2;P2;SDS_P1;SDS_P2;PMS_P1;PMS_P2;Temp;Humidity;BMP_temperature;BMP_pressure;BME280_temperature;BME280_humidity;BME280_pressure;Samples;Min_cycle;Max_cycle;Signal;HPM_P1;HPM_P2
2024/03/18 00:01:26;;;;;;;;;;;11.70;99.90;;;;;;5033232;28;19905;-68
2024/03/18 00:03:52;;;;;;;;;;;11.70;99.90;;;;;;5032047;28;19945;-69
2024/03/18 00:06:17;;;;;;;;;;;11.70;99.90;;;;;;5032504;28;19963;-68
2024/03/18 00:08:45;;;;;;;;;;;11.70;99.90;;;;;;5033050;28;19912;-68
2024/03/18 00:11:11;;;;;;;;;;;11.70;99.90;;;;;;5032638;28;19909;-67
2024/03/18 00:13:37;;;;;;;;;;;11.70;99.90;;;;;;5032729;28;19912;-68
2024/03/18 00:16:03;;;;;;;;;;;11.60;99.90;;;;;;5032445;28;19905;-69
2024/03/18 00:18:29;;;;;;;;;;;11.60;99.90;;;;;;5033019;28;19931;-68
2024/03/18 00:20:54;;;;;;;;;;;11.50;99.90;;;;;;5033138;28;20007;-68
2024/03/18 00:23:20;;;;;;;;;;;11.50;99.90;;;;;;5032631;28;19971;-68
2024/03/18 00:25:45;;;;;;;;;;;11.50;99.90;;;;;;5031768;28;19913;-67
2024/03/18 00:28:12;;;;;;;;;;;11.50;99.90;;;;;;5032367;28;19996;-67
2024/03/18 00:30:39;;;;;;;;;;;11.50;99.90;;;;;;5032548;28;19909;-68
2024/03/18 00:33:04;;;;;;;;;;;11.40;99.90;;;;;;5032642;28;19905;-68
2024/03/18 00:35:30;;;;;;;;;;;11.30;99.90;;;;;;5032422;28;19905;-68
2024/03/18 00:37:55;;;;;;;;;;;11.30;99.90;;;;;;5032656;28;19912;-68
2024/03/18 00:40:21;;;;;;;;;;;11.30;99.90;;;;;;5032540;28;19905;-69
2024/03/18 00:42:47;;;;;;;;;;;11.30;99.90;;;;;;5032694;28;19905;-68
2024/03/18 00:45:14;;;;;;;;;;;11.30;99.90;;;;;;5032262;28;19913;-69
2024/03/18 00:47:40;;;;;;;;;;;11.30;99.90;;;;;;5032543;28;19905;-68
2024/03/18 00:50:09;;;;;;;;;;;11.30;99.90;;;;;;5048692;28;19962;-67
2024/03/18 00:52:35;;;;;;;;;;;11.30;99.90;;;;;;5046706;28;19909;-68
2024/03/18 00:55:00;;;;;;;;;;;11.30;99.90;;;;;;5032479;28;20288;-68
2024/03/18 00:57:26;;;;;;;;;;;11.30;99.90;;;;;;5032377;28;19905;-67
2024/03/18 00:59:52;;;;;;;;;;;11.30;99.90;;;;;;5032263;28;19916;-69
2024/03/18 01:02:17;;;;;;;;;;;11.20;99.90;;;;;;5031983;28;20288;-69
2024/03/18 01:04:43;;;;;;;;;;;11.20;99.90;;;;;;5031804;28;19905;-69
2024/03/18 01:07:08;;;;;;;;;;;11.30;99.90;;;;;;5031920;28;19909;-69
2024/03/18 01:09:36;;;;;;;;;;;11.30;99.90;;;;;;5032080;28;19905;-68
2024/03/18 01:12:01;;;;;;;;;;;11.30;99.90;;;;;;5031788;28;19909;-68
2024/03/18 01:14:27;;;;;;;;;;;11.30;99.90;;;;;;5031882;28;19905;-68
2024/03/18 01:16:52;;;;;;;;;;;11.20;99.90;;;;;;5035118;28;19912;-69
2024/03/18 01:19:19;;;;;;;;;;;11.20;99.90;;;;;;5035868;28;19905;-69
2024/03/18 01:21:44;;;;;;;;;;;11.20;99.90;;;;;;5035911;28;19912;-66
2024/03/18 01:24:10;;;;;;;;;;;11.50;99.90;;;;;;5035517;28;19904;-67
2024/03/18 01:26:36;;;;;;;;;;;11.20;99.90;;;;;;5035398;28;20256;-67
2024/03/18 01:29:02;;;;;;;;;;;11.30;99.90;;;;;;5035837;28;20035;-67
2024/03/18 01:31:27;;;;;;;;;;;11.30;99.90;;;;;;5035644;28;20008;-67
2024/03/18 01:33:54;;;;;;;;;;;11.30;99.90;;;;;;5035623;28;19911;-67
2024/03/18 01:36:19;;;;;;;;;;;11.20;99.90;;;;;;5035112;28;19992;-67
2024/03/18 01:38:45;;;;;;;;;;;11.30;99.90;;;;;;5035251;28;20572;-67
2024/03/18 01:41:10;;;;;;;;;;;11.30;99.90;;;;;;5035348;28;20249;-67
2024/03/18 01:43:37;;;;;;;;;;;11.20;99.90;;;;;;5035434;28;19958;-67
2024/03/18 01:46:12;;;;;;;;;;;11.30;99.90;;;;;;5034884;28;20442;-67
2024/03/18 01:48:37;;;;;;;;;;;11.30;99.90;;;;;;5035403;28;19932;-67
2024/03/18 01:51:03;;;;;;;;;;;11.20;99.90;;;;;;5035226;28;20307;-67
2024/03/18 01:53:28;;;;;;;;;;;11.20;99.90;;;;;;5035200;28;19905;-69
2024/03/18 01:55:54;;;;;;;;;;;11.20;99.90;;;;;;5034875;28;19955;-68
2024/03/18 01:58:21;;;;;;;;;;;11.20;99.90;;;;;;5035275;28;20384;-69
2024/03/18 02:00:46;;;;;;;;;;;11.20;99.90;;;;;;5035080;28;19905;-68
2024/03/18 02:03:12;;;;;;;;;;;11.20;99.90;;;;;;5035034;28;19911;-68
2024/03/18 02:05:38;;;;;;;;;;;11.20;99.90;;;;;;5034585;28;19955;-68
2024/03/18 02:08:03;;;;;;;;;;;11.10;99.90;;;;;;5034837;28;19905;-67
2024/03/18 02:10:29;;;;;;;;;;;11.10;99.90;;;;;;5034773;28;19950;-67
2024/03/18 02:13:02;;;;;;;;;;;11.10;99.90;;;;;;5034820;28;20402;-67
2024/03/18 02:15:28;;;;;;;;;;;11.20;99.90;;;;;;5034356;28;19959;-67
2024/03/18 02:17:54;;;;;;;;;;;11.20;99.90;;;;;;5034805;28;19905;-67
2024/03/18 02:20:20;;;;;;;;;;;11.10;99.90;;;;;;5034726;28;20439;-67
2024/03/18 02:22:46;;;;;;;;;;;11.10;99.90;;;;;;5034693;28;19905;-67
2024/03/18 02:25:12;;;;;;;;;;;11.10;99.90;;;;;;5034315;28;19991;-67
2024/03/18 02:27:37;;;;;;;;;;;11.10;99.90;;;;;;5033496;28;19904;-67
2024/03/18 02:30:04;;;;;;;;;;;11.00;99.90;;;;;;5034429;28;19997;-67
2024/03/18 02:32:31;;;;;;;;;;;11.10;99.90;;;;;;5034506;28;19911;-67
2024/03/18 02:34:57;;;;;;;;;;;11.00;99.90;;;;;;5034133;28;20507;-68
2024/03/18 02:37:22;;;;;;;;;;;11.10;99.90;;;;;;5034730;28;19905;-69
2024/03/18 02:39:48;;;;;;;;;;;11.10;99.90;;;;;;5034353;28;19905;-68
2024/03/18 02:42:14;;;;;;;;;;;11.10;99.90;;;;;;5034458;28;19951;-68
2024/03/18 02:44:39;;;;;;;;;;;11.10;99.90;;;;;;5033744;28;20007;-67
2024/03/18 02:47:05;;;;;;;;;;;11.00;99.90;;;;;;5034126;28;20325;-67
2024/03/18 02:49:30;;;;;;;;;;;11.00;99.90;;;;;;5034021;28;19944;-66
2024/03/18 02:51:56;;;;;;;;;;;11.00;99.90;;;;;;5034240;28;19909;-67
2024/03/18 02:54:21;;;;;;;;;;;11.00;99.90;;;;;;5034156;28;19992;-67
2024/03/18 02:56:47;;;;;;;;;;;11.00;99.90;;;;;;5033844;28;19920;-67
2024/03/18 02:59:12;;;;;;;;;;;11.00;99.90;;;;;;5034086;28;19905;-67
2024/03/18 03:01:38;;;;;;;;;;;11.00;99.90;;;;;;5033997;28;19975;-67
2024/03/18 03:04:03;;;;;;;;;;;10.80;99.90;;;;;;5033844;28;20418;-67
2024/03/18 03:06:29;;;;;;;;;;;10.90;99.90;;;;;;5033621;28;20352;-67
2024/03/18 03:08:54;;;;;;;;;;;10.90;99.90;;;;;;5033786;28;19959;-67
2024/03/18 03:11:20;;;;;;;;;;;10.90;99.90;;;;;;5033718;28;20352;-67
2024/03/18 03:13:45;;;;;;;;;;;10.90;99.90;;;;;;5033762;28;19912;-67
2024/03/18 03:16:11;;;;;;;;;;;10.90;99.90;;;;;;5033414;28;20003;-67
2024/03/18 03:18:37;;;;;;;;;;;10.90;99.90;;;;;;5033524;28;19909;-67
2024/03/18 03:21:05;;;;;;;;;;;10.90;99.90;;;;;;5033598;28;20368;-67
2024/03/18 03:23:32;;;;;;;;;;;10.90;99.90;;;;;;5033703;28;19905;-67
2024/03/18 03:25:58;;;;;;;;;;;10.90;99.90;;;;;;5033155;28;20001;-67
2024/03/18 03:28:23;;;;;;;;;;;10.90;99.90;;;;;;5033394;28;19992;-67
2024/03/18 03:30:58;;;;;;;;;;;11.00;99.90;;;;;;5033353;28;20007;-67
2024/03/18 03:33:24;;;;;;;;;;;11.00;99.90;;;;;;5033424;28;19905;-67
2024/03/18 03:35:49;;;;;;;;;;;11.10;99.90;;;;;;5033046;28;19912;-67
2024/03/18 03:38:15;;;;;;;;;;;11.10;99.90;;;;;;5032838;28;20284;-67
2024/03/18 03:40:49;;;;;;;;;;;11.20;99.90;;;;;;5033269;28;19987;-68
2024/03/18 03:43:15;;;;;;;;;;;11.30;99.90;;;;;;5033310;28;20378;-67
2024/03/18 03:45:40;;;;;;;;;;;11.20;99.90;;;;;;5033208;28;19905;-69
2024/03/18 03:48:05;;;;;;;;;;;11.30;99.90;;;;;;5033459;28;19908;-68
2024/03/18 03:50:31;;;;;;;;;;;11.20;99.90;;;;;;5033452;28;20015;-68
2024/03/18 03:52:56;;;;;;;;;;;11.20;99.90;;;;;;5033095;28;19905;-69
2024/03/18 03:55:22;;;;;;;;;;;11.20;99.90;;;;;;5032955;28;19912;-69
2024/03/18 03:57:47;;;;;;;;;;;11.20;99.90;;;;;;5033122;28;19905;-69
2024/03/18 04:00:13;;;;;;;;;;;11.20;99.90;;;;;;5033333;28;20387;-69
2024/03/18 04:02:38;;;;;;;;;;;11.20;99.90;;;;;;5033199;28;19905;-68
2024/03/18 04:05:04;;;;;;;;;;;11.20;99.90;;;;;;5032587;28;20425;-68
2024/03/18 04:07:30;;;;;;;;;;;11.20;99.90;;;;;;5032894;28;20379;-67
2024/03/18 04:09:55;;;;;;;;;;;11.20;99.90;;;;;;5032349;28;19905;-68
2024/03/18 04:12:21;;;;;;;;;;;11.10;99.90;;;;;;5032308;28;20394;-68
2024/03/18 04:14:49;;;;;;;;;;;11.10;99.90;;;;;;5032048;28;19911;-68
2024/03/18 04:17:15;;;;;;;;;;;11.10;99.90;;;;;;5033185;28;20461;-69
2024/03/18 04:19:41;;;;;;;;;;;11.00;99.90;;;;;;5032732;28;19911;-69
2024/03/18 04:22:06;;;;;;;;;;;11.00;99.90;;;;;;5033072;28;19905;-69
2024/03/18 04:24:32;;;;;;;;;;;11.00;99.90;;;;;;5032579;28;19909;-68
2024/03/18 04:26:57;;;;;;;;;;;10.90;99.90;;;;;;5032362;28;19959;-68
2024/03/18 04:29:23;;;;;;;;;;;10.90;99.90;;;;;;5032609;28;19905;-69
2024/03/18 04:31:49;;;;;;;;;;;10.90;99.90;;;;;;5032672;28;19913;-68
2024/03/18 04:34:14;;;;;;;;;;;11.00;99.90;;;;;;5032498;28;19912;-68
2024/03/18 04:36:40;;;;;;;;;;;10.90;99.90;;;;;;5032387;28;19905;-69
2024/03/18 04:39:05;;;;;;;;;;;10.90;99.90;;;;;;5032709;28;19912;-68
2024/03/18 04:41:31;;;;;;;;;;;10.90;99.90;;;;;;5032496;28;19916;-69
2024/03/18 04:43:56;;;;;;;;;;;10.90;99.90;;;;;;5032500;28;19959;-69
2024/03/18 04:46:22;;;;;;;;;;;10.90;99.90;;;;;;5031907;28;20000;-69
2024/03/18 04:48:47;;;;;;;;;;;10.80;99.90;;;;;;5032212;28;19914;-69
2024/03/18 04:51:13;;;;;;;;;;;10.70;99.90;;;;;;5034614;28;19916;-69
2024/03/18 04:53:38;;;;;;;;;;;10.70;20.50;;;;;;5036295;28;19909;-68
2024/03/18 04:56:04;;;;;;;;;;;10.70;17.00;;;;;;5035977;28;19982;-68
2024/03/18 04:58:29;;;;;;;;;;;10.60;99.90;;;;;;5036217;28;19912;-69
2024/03/18 05:00:55;;;;;;;;;;;10.60;99.90;;;;;;5036280;28;19948;-68
2024/03/18 05:03:21;;;;;;;;;;;10.60;96.60;;;;;;5036178;28;19905;-68
2024/03/18 05:05:46;;;;;;;;;;;10.60;93.30;;;;;;5035822;28;19967;-68
2024/03/18 05:08:12;;;;;;;;;;;10.60;89.80;;;;;;5035993;28;19905;-68
2024/03/18 05:10:39;;;;;;;;;;;10.60;65.70;;;;;;5036094;28;19916;-68
2024/03/18 05:13:05;;;;;;;;;;;10.60;99.90;;;;;;5035931;28;19905;-68
2024/03/18 05:15:31;;;;;;;;;;;10.50;99.90;;;;;;5035922;28;19940;-69
2024/03/18 05:17:56;;;;;;;;;;;10.40;66.80;;;;;;5035888;28;20396;-68
2024/03/18 05:20:22;;;;;;;;;;;10.30;78.70;;;;;;5035875;28;19912;-69
2024/03/18 05:22:47;;;;;;;;;;;10.40;56.10;;;;;;5035760;28;19999;-69
2024/03/18 05:25:14;;;;;;;;;;;10.40;89.80;;;;;;5035684;28;20429;-67
2024/03/18 05:27:39;;;;;;;;;;;10.50;99.90;;;;;;5036489;28;19904;-67
2024/03/18 05:30:05;;;;;;;;;;;10.50;99.90;;;;;;5038464;28;19920;-68
2024/03/18 05:32:31;;;;;;;;;;;10.60;99.90;;;;;;5038753;28;20265;-68
2024/03/18 05:34:56;;;;;;;;;;;10.50;99.90;;;;;;5037304;28;20375;-68
2024/03/18 05:37:22;;;;;;;;;;;10.50;99.90;;;;;;5035573;28;19989;-68
2024/03/18 05:39:47;;;;;;;;;;;10.40;99.90;;;;;;5035527;28;19905;-68
2024/03/18 05:42:13;;;;;;;;;;;10.40;99.90;;;;;;5035474;28;19905;-68
2024/03/18 05:44:38;;;;;;;;;;;10.30;99.90;;;;;;5035116;28;19959;-68
2024/03/18 05:47:04;;;;;;;;;;;10.30;99.90;;;;;;5035365;28;19943;-69
2024/03/18 05:49:29;;;;;;;;;;;10.40;99.90;;;;;;5036736;28;20360;-67
2024/03/18 05:51:56;;;;;;;;;;;10.40;99.90;;;;;;5038310;28;19909;-68
2024/03/18 05:54:22;;;;;;;;;;;10.40;99.90;;;;;;5037170;28;19912;-67
2024/03/18 05:56:47;;;;;;;;;;;10.40;99.90;;;;;;5035070;28;19906;-67
2024/03/18 05:59:14;;;;;;;;;;;10.40;99.90;;;;;;5034883;28;19909;-67
2024/03/18 06:01:40;;;;;;;;;;;10.30;99.90;;;;;;5035319;28;20312;-67
2024/03/18 06:04:05;;;;;;;;;;;10.60;99.90;;;;;;5035059;28;19921;-67
2024/03/18 06:06:32;;;;;;;;;;;10.30;99.90;;;;;;5034632;28;19909;-67
2024/03/18 06:08:58;;;;;;;;;;;10.20;99.90;;;;;;5034783;28;19940;-66
2024/03/18 06:11:23;;;;;;;;;;;10.10;99.90;;;;;;5034912;28;20388;-67
2024/03/18 06:13:49;;;;;;;;;;;10.10;99.90;;;;;;5034968;28;19920;-67
2024/03/18 06:16:17;;;;;;;;;;;10.20;99.90;;;;;;5034550;28;19909;-66
2024/03/18 06:18:43;;;;;;;;;;;10.10;99.90;;;;;;5034803;28;19904;-67
2024/03/18 06:21:16;;;;;;;;;;;10.20;99.90;;;;;;5034740;28;20051;-67
2024/03/18 06:23:54;;;;;;;;;;;10.20;99.90;;;;;;5034776;28;19943;-67
2024/03/18 06:26:23;;;;;;;;;;;10.20;99.90;;;;;;5037484;28;20265;-68
2024/03/18 06:28:48;;;;;;;;;;;10.20;99.90;;;;;;5038313;28;19954;-68
2024/03/18 06:31:14;;;;;;;;;;;10.30;99.90;;;;;;5038143;28;19996;-68
2024/03/18 06:33:39;;;;;;;;;;;10.30;99.90;;;;;;5037040;28;19912;-67
2024/03/18 06:36:11;;;;;;;;;;;10.40;99.90;;;;;;5034098;28;19905;-67
2024/03/18 06:38:38;;;;;;;;;;;10.40;99.90;;;;;;5034482;28;19911;-67
2024/03/18 06:41:04;;;;;;;;;;;10.50;99.90;;;;;;5034573;28;19912;-67
2024/03/18 06:43:30;;;;;;;;;;;10.50;99.90;;;;;;5034324;28;19905;-67
2024/03/18 06:45:56;;;;;;;;;;;10.50;99.90;;;;;;5034105;28;19905;-66
2024/03/18 06:48:21;;;;;;;;;;;10.60;99.90;;;;;;5034283;28;20372;-67
2024/03/18 06:50:47;;;;;;;;;;;10.60;99.90;;;;;;5034079;28;19932;-67
2024/03/18 06:53:12;;;;;;;;;;;10.60;99.90;;;;;;5035375;28;19987;-68
2024/03/18 06:55:43;;;;;;;;;;;10.70;99.90;;;;;;5036606;28;19912;-68
2024/03/18 06:58:08;;;;;;;;;;;10.80;99.90;;;;;;5036772;28;19909;-68
2024/03/18 07:00:34;;;;;;;;;;;10.90;99.90;;;;;;5035393;28;19928;-68
2024/03/18 07:02:59;;;;;;;;;;;11.00;99.90;;;;;;5034163;28;19908;-67
2024/03/18 07:05:25;;;;;;;;;;;11.10;99.90;;;;;;5033752;28;19905;-69
2024/03/18 07:07:51;;;;;;;;;;;11.20;99.90;;;;;;5036987;28;20106;-68
2024/03/18 07:10:17;;;;;;;;;;;11.20;99.90;;;;;;5036777;28;19905;-67
2024/03/18 07:12:43;;;;;;;;;;;11.20;99.90;;;;;;5036417;28;19912;-67
2024/03/18 07:15:09;;;;;;;;;;;11.30;99.90;;;;;;5034093;28;20291;-68
2024/03/18 07:17:35;;;;;;;;;;;11.30;99.90;;;;;;5033680;28;19959;-68
2024/03/18 07:20:13;;;;;;;;;;;11.40;99.90;;;;;;5033557;28;20003;-68
2024/03/18 07:22:39;;;;;;;;;;;11.50;99.90;;;;;;5033889;28;20418;-68
2024/03/18 07:25:08;;;;;;;;;;;11.60;99.90;;;;;;5033134;28;19920;-67
2024/03/18 07:27:36;;;;;;;;;;;11.70;99.90;;;;;;5033648;28;19912;-67
2024/03/18 07:30:02;;;;;;;;;;;11.70;99.90;;;;;;5033483;28;19909;-67
2024/03/18 07:32:28;;;;;;;;;;;11.80;99.90;;;;;;5033430;28;19916;-67
2024/03/18 07:34:54;;;;;;;;;;;11.90;99.90;;;;;;5033009;28;19905;-68
2024/03/18 07:37:19;;;;;;;;;;;11.90;99.90;;;;;;5033279;28;19999;-68
2024/03/18 07:39:47;;;;;;;;;;;12.00;99.90;;;;;;5033369;28;20379;-67
2024/03/18 07:42:13;;;;;;;;;;;12.00;99.90;;;;;;5035266;28;19905;-68
2024/03/18 07:44:39;;;;;;;;;;;12.00;95.80;;;;;;5034553;28;20429;-68
2024/03/18 07:47:05;;;;;;;;;;;12.10;99.90;;;;;;5033050;28;19905;-68
2024/03/18 07:49:30;;;;;;;;;;;12.20;99.90;;;;;;5033066;28;19905;-69
2024/03/18 07:51:56;;;;;;;;;;;12.30;99.90;;;;;;5032949;28;19908;-68
2024/03/18 07:54:22;;;;;;;;;;;12.20;62.00;;;;;;5033121;28;19912;-68
2024/03/18 07:56:47;;;;;;;;;;;12.30;67.40;;;;;;5032768;28;19905;-67
2024/03/18 07:59:13;;;;;;;;;;;12.40;13.50;;;;;;5033649;28;19905;-68
2024/03/18 08:01:38;;;;;;;;;;;12.50;1.00;;;;;;5036219;28;19959;-68
2024/03/18 08:04:04;;;;;;;;;;;12.20;13.00;;;;;;5035888;28;19905;-68
2024/03/18 08:06:29;;;;;;;;;;;12.30;1.00;;;;;;5036386;28;20254;-68
2024/03/18 08:08:55;;;;;;;;;;;12.30;99.90;;;;;;5036973;28;19974;-69
2024/03/18 08:11:20;;;;;;;;;;;12.50;99.90;;;;;;5037301;28;19913;-68
2024/03/18 08:13:46;;;;;;;;;;;12.60;99.90;;;;;;5036278;28;19905;-68
2024/03/18 08:16:11;;;;;;;;;;;12.60;99.90;;;;;;5036612;28;19959;-67
2024/03/18 08:18:37;;;;;;;;;;;12.80;99.90;;;;;;5034258;28;20051;-67
2024/03/18 08:21:03;;;;;;;;;;;12.90;99.90;;;;;;5032627;28;19996;-67
2024/03/18 08:23:29;;;;;;;;;;;13.10;99.90;;;;;;5035607;28;19911;-67
2024/03/18 08:25:55;;;;;;;;;;;13.20;99.90;;;;;;5034214;28;20295;-69
2024/03/18 08:28:20;;;;;;;;;;;13.30;99.90;;;;;;5035838;28;20357;-67
2024/03/18 08:30:46;;;;;;;;;;;13.40;99.90;;;;;;5036654;28;19909;-68
2024/03/18 08:33:11;;;;;;;;;;;13.40;99.90;;;;;;5036388;28;20359;-68
2024/03/18 08:35:37;;;;;;;;;;;13.50;99.90;;;;;;5036979;28;20011;-69
2024/03/18 08:38:03;;;;;;;;;;;13.50;99.90;;;;;;5036817;28;19912;-68
2024/03/18 08:40:28;;;;;;;;;;;13.70;99.90;;;;;;5036873;28;19927;-68
2024/03/18 08:42:54;;;;;;;;;;;13.80;99.90;;;;;;5035887;28;20307;-67
2024/03/18 08:45:19;;;;;;;;;;;13.80;99.90;;;;;;5035733;28;19951;-68
2024/03/18 08:47:45;;;;;;;;;;;13.80;99.90;;;;;;5036329;28;19959;-67
2024/03/18 08:50:10;;;;;;;;;;;13.80;99.90;;;;;;5036429;28;19959;-67
2024/03/18 08:52:39;;;;;;;;;;;13.60;99.90;;;;;;5036092;28;19909;-67
2024/03/18 08:55:05;;;;;;;;;;;13.60;99.90;;;;;;5035703;28;19950;-67
2024/03/18 08:57:30;;;;;;;;;;;13.60;99.90;;;;;;5035930;28;20374;-67
2024/03/18 08:59:56;;;;;;;;;;;13.60;99.90;;;;;;5032594;28;19999;-67
2024/03/18 09:02:22;;;;;;;;;;;13.60;99.90;;;;;;5032104;28;19905;-67
2024/03/18 09:04:48;;;;;;;;;;;13.70;99.90;;;;;;5031896;28;20072;-67
2024/03/18 09:07:13;;;;;;;;;;;13.80;99.90;;;;;;5032271;28;19906;-67
2024/03/18 09:09:39;;;;;;;;;;;13.80;99.90;;;;;;5033403;28;19905;-67
2024/03/18 09:12:04;;;;;;;;;;;13.80;99.90;;;;;;5035090;28;19956;-67
2024/03/18 09:14:30;;;;;;;;;;;13.70;99.90;;;;;;5033466;28;19912;-67
2024/03/18 09:16:57;;;;;;;;;;;13.90;99.90;;;;;;5034924;28;19905;-69
2024/03/18 09:19:22;;;;;;;;;;;14.10;99.90;;;;;;5032543;28;20430;-68
2024/03/18 09:21:48;;;;;;;;;;;14.20;99.90;;;;;;5024628;28;19909;-68
2024/03/18 09:26:43;;;;;;;;;;;14.40;99.90;;;;;;5030175;28;19921;-69
2024/03/18 09:29:09;;;;;;;;;;;14.50;99.90;;;;;;5031385;28;19927;-68
2024/03/18 09:31:34;;;;;;;;;;;14.50;99.90;;;;;;5029066;28;19914;-68
2024/03/18 09:34:00;;;;;;;;;;;;;;;;;;5027469;28;19905;-68
2024/03/18 09:36:26;;;;;;;;;;;14.60;99.90;;;;;;5037407;28;20323;-68
2024/03/18 09:38:51;;;;;;;;;;;14.80;99.90;;;;;;5033953;28;20402;-68
2024/03/18 09:41:20;;;;;;;;;;;15.00;99.90;;;;;;5034998;28;19912;-68
2024/03/18 09:43:47;;;;;;;;;;;15.10;99.90;;;;;;5052468;28;19920;-67
2024/03/18 09:46:14;;;;;;;;;;;15.20;96.90;;;;;;5054603;28;19935;-68
2024/03/18 09:48:39;;;;;;;;;;;15.40;92.30;;;;;;5055345;28;19912;-67
2024/03/18 09:51:05;;;;;;;;;;;15.30;80.10;;;;;;5054996;28;19908;-67
2024/03/18 09:53:30;;;;;;;;;;;15.20;89.90;;;;;;5055136;28;19913;-69
2024/03/18 09:55:56;;;;;;;;;;;15.00;91.90;;;;;;5054864;28;20291;-67
2024/03/18 09:58:22;;;;;;;;;;;15.00;91.70;;;;;;5030997;28;19914;-67
2024/03/18 10:00:47;;;;;;;;;;;15.00;93.50;;;;;;5034829;28;19959;-67
2024/03/18 10:03:15;;;;;;;;;;;15.00;96.10;;;;;;5034993;28;19967;-67
2024/03/18 10:05:41;;;;;;;;;;;15.20;91.50;;;;;;5034883;28;19905;-67
2024/03/18 10:08:08;;;;;;;;;;;15.30;81.50;;;;;;5034807;28;19952;-67
2024/03/18 10:10:34;;;;;;;;;;;15.20;76.00;;;;;;5034898;28;19909;-68
2024/03/18 10:12:59;;;;;;;;;;;15.30;81.70;;;;;;5034875;28;19927;-67
2024/03/18 10:15:26;;;;;;;;;;;15.30;73.40;;;;;;5034469;28;19905;-67
2024/03/18 10:17:52;;;;;;;;;;;15.40;74.30;;;;;;5034783;28;19905;-67
2024/03/18 10:20:19;;;;;;;;;;;15.80;88.60;;;;;;5034798;28;19905;-67
2024/03/18 10:22:48;;;;;;;;;;;16.20;70.60;;;;;;5034855;28;19909;-67
2024/03/18 10:25:16;;;;;;;;;;;16.40;39.50;;;;;;5034303;28;19913;-67
2024/03/18 10:27:43;;;;;;;;;;;16.40;32.20;;;;;;5034547;28;19905;-67
2024/03/18 10:30:12;;;;;;;;;;;16.30;26.10;;;;;;5034461;28;19906;-67
2024/03/18 10:32:39;;;;;;;;;;;16.30;30.60;;;;;;5034622;28;19909;-67
2024/03/18 10:35:06;;;;;;;;;;;16.50;33.10;;;;;;5034250;28;19905;-68
2024/03/18 10:37:32;;;;;;;;;;;16.50;26.90;;;;;;5034515;28;19912;-67
2024/03/18 10:40:08;;;;;;;;;;;16.50;25.80;;;;;;5034505;28;20356;-67
2024/03/18 10:42:37;;;;;;;;;;;16.60;28.00;;;;;;5034325;28;19909;-67
2024/03/18 10:45:06;;;;;;;;;;;16.60;27.20;;;;;;5034192;28;19968;-67
2024/03/18 10:47:32;;;;;;;;;;;16.50;27.80;;;;;;5033766;28;20361;-67
2024/03/18 10:49:58;;;;;;;;;;;16.20;26.20;;;;;;5033962;28;19992;-67
2024/03/18 10:52:24;;;;;;;;;;;16.00;31.20;;;;;;5034138;28;20399;-67
2024/03/18 10:54:50;;;;;;;;;;;15.80;40.90;;;;;;5033762;28;19913;-67
2024/03/18 10:57:16;;;;;;;;;;;15.80;44.30;;;;;;5034065;28;19905;-67
2024/03/18 10:59:41;;;;;;;;;;;15.80;43.00;;;;;;5034248;28;19905;-67
2024/03/18 11:02:09;;;;;;;;;;;16.00;41.60;;;;;;5034032;28;19963;-67
2024/03/18 11:04:39;;;;;;;;;;;16.30;36.20;;;;;;5033858;28;19905;-68
2024/03/18 11:07:04;;;;;;;;;;;16.60;27.90;;;;;;5033927;28;19905;-67
2024/03/18 11:09:30;;;;;;;;;;;16.90;22.80;;;;;;5033827;28;19913;-67
2024/03/18 11:11:55;;;;;;;;;;;17.00;18.30;;;;;;5033806;28;19913;-67
2024/03/18 11:14:24;;;;;;;;;;;17.10;15.60;;;;;;5033590;28;19912;-67
2024/03/18 11:16:51;;;;;;;;;;;17.20;14.80;;;;;;5033583;28;20375;-67
2024/03/18 11:19:17;;;;;;;;;;;17.20;16.60;;;;;;5033624;28;20383;-67
2024/03/18 11:21:43;;;;;;;;;;;16.90;15.50;;;;;;5033629;28;19905;-67
2024/03/18 11:24:20;;;;;;;;;;;16.30;19.80;;;;;;5033472;28;19999;-67
2024/03/18 11:26:45;;;;;;;;;;;15.80;99.90;;;;;;5048536;22;19921;-69
2024/03/18 11:29:11;;;;;;;;;;;15.80;1.00;;;;;;5033482;28;19905;-69
2024/03/18 11:31:37;;;;;;;;;;;16.10;52.20;;;;;;5033373;28;19916;-68
2024/03/18 11:34:09;;;;;;;;;;;16.10;28.50;;;;;;5033462;28;19905;-69
2024/03/18 11:36:39;;;;;;;;;;;16.00;38.00;;;;;;5032927;28;19940;-70
2024/03/18 11:39:07;;;;;;;;;;;15.90;44.90;;;;;;5033577;28;20432;-68
2024/03/18 11:41:35;;;;;;;;;;;16.10;35.10;;;;;;5033455;28;19937;-70
2024/03/18 11:44:00;;;;;;;;;;;16.10;28.70;;;;;;5033086;28;19916;-69
2024/03/18 11:46:27;;;;;;;;;;;15.90;29.70;;;;;;5032989;28;19905;-67
2024/03/18 11:49:08;;;;;;;;;;;15.70;44.80;;;;;;5033130;28;19951;-67
2024/03/18 11:51:34;;;;;;;;;;;15.80;44.80;;;;;;5033073;28;19916;-69
2024/03/18 11:54:00;;;;;;;;;;;15.90;29.90;;;;;;5033054;28;19904;-68
2024/03/18 11:56:26;;;;;;;;;;;16.00;25.10;;;;;;5032647;28;19905;-68
2024/03/18 11:58:55;;;;;;;;;;;16.10;29.40;;;;;;5033441;28;19951;-67
2024/03/18 12:01:24;;;;;;;;;;;16.00;35.10;;;;;;5032941;28;19959;-69
2024/03/18 12:03:50;;;;;;;;;;;15.80;35.50;;;;;;5032918;28;20395;-69
2024/03/18 12:06:15;;;;;;;;;;;15.60;44.50;;;;;;5032571;28;19905;-69
2024/03/18 12:08:41;;;;;;;;;;;15.50;38.30;;;;;;5032843;28;19959;-67
2024/03/18 12:11:07;;;;;;;;;;;15.60;43.40;;;;;;5032746;28;20418;-69
2024/03/18 12:13:32;;;;;;;;;;;15.90;29.60;;;;;;5032641;28;19905;-68
2024/03/18 12:15:58;;;;;;;;;;;16.30;29.80;;;;;;5032424;28;19909;-69
2024/03/18 12:18:24;;;;;;;;;;;16.40;16.50;;;;;;5032602;28;19911;-68
2024/03/18 12:20:55;;;;;;;;;;;16.30;16.10;;;;;;5032910;28;19941;-67
2024/03/18 12:28:58;;;;;;;;;;;15.70;24.10;;;;;;5032829;28;19911;-68
2024/03/18 12:31:25;;;;;;;;;;;15.80;19.90;;;;;;5032382;28;19909;-69
2024/03/18 12:33:51;;;;;;;;;;;16.10;16.10;;;;;;5032293;28;19909;-70
2024/03/18 12:36:17;;;;;;;;;;;16.50;11.80;;;;;;5032024;28;19912;-68
2024/03/18 12:38:49;;;;;;;;;;;16.60;5.50;;;;;;5032420;28;20293;-70
2024/03/18 12:41:15;;;;;;;;;;;16.80;6.50;;;;;;5032117;28;19999;-68
2024/03/18 12:43:42;;;;;;;;;;;17.00;3.50;;;;;;5037333;28;19911;-69
2024/03/18 12:46:08;;;;;;;;;;;17.30;3.10;;;;;;5041551;28;20442;-67
2024/03/18 12:48:33;;;;;;;;;;;16.90;1.80;;;;;;5045292;28;19909;-70
2024/03/18 12:50:59;;;;;;;;;;;16.40;1.00;;;;;;5029728;28;19909;-69
2024/03/18 12:53:24;;;;;;;;;;;16.10;99.90;;;;;;5032067;28;20292;-69
2024/03/18 12:55:50;;;;;;;;;;;16.00;16.00;;;;;;5032808;28;19962;-69
2024/03/18 12:58:18;;;;;;;;;;;16.00;17.00;;;;;;5050084;28;19969;-68
2024/03/18 13:00:43;;;;;;;;;;;16.00;99.90;;;;;;5052079;28;19904;-69
2024/03/18 13:03:13;;;;;;;;;;;15.80;15.60;;;;;;5051488;28;19912;-68
2024/03/18 13:05:38;;;;;;;;;;;15.60;1.00;;;;;;5051549;28;19912;-69
2024/03/18 13:08:04;;;;;;;;;;;15.50;25.60;;;;;;5051947;28;19905;-68
2024/03/18 13:10:29;;;;;;;;;;;15.40;25.60;;;;;;5051356;28;19909;-68
2024/03/18 13:12:55;;;;;;;;;;;15.30;25.20;;;;;;5055699;28;19911;-69
2024/03/18 13:15:22;;;;;;;;;;;15.30;99.90;;;;;;5055548;28;19958;-68
2024/03/18 13:17:48;;;;;;;;;;;15.20;24.70;;;;;;5049189;28;19911;-69
2024/03/18 13:20:16;;;;;;;;;;;15.30;28.80;;;;;;5048054;28;20363;-68
2024/03/18 13:22:42;;;;;;;;;;;15.50;18.10;;;;;;5055911;28;19908;-68
2024/03/18 13:25:09;;;;;;;;;;;15.70;99.90;;;;;;5054725;28;19912;-69
2024/03/18 13:27:34;;;;;;;;;;;16.80;11.60;;;;;;5055531;28;20003;-68
2024/03/18 13:30:00;;;;;;;;;;;17.60;1.00;;;;;;5055842;28;20403;-68
2024/03/18 13:32:25;;;;;;;;;;;18.00;1.00;;;;;;5054916;28;19966;-67
2024/03/18 13:34:52;;;;;;;;;;;18.70;5.70;;;;;;5055270;28;19909;-67
2024/03/18 13:37:18;;;;;;;;;;;18.90;1.00;;;;;;5055255;28;19958;-66
2024/03/18 13:39:46;;;;;;;;;;;18.80;1.00;;;;;;5055009;28;19905;-67
2024/03/18 13:42:15;;;;;;;;;;;18.80;1.00;;;;;;5055405;28;20275;-67
2024/03/18 13:44:44;;;;;;;;;;;19.00;1.00;;;;;;5055293;28;19916;-66
2024/03/18 13:47:14;;;;;;;;;;;19.00;1.00;;;;;;5054859;28;20425;-66
2024/03/18 13:49:40;;;;;;;;;;;19.10;1.00;;;;;;5055245;28;19920;-68
2024/03/18 13:52:06;;;;;;;;;;;19.40;1.00;;;;;;5055074;28;20364;-68
2024/03/18 13:54:32;;;;;;;;;;;19.80;1.00;;;;;;5054714;28;19943;-68
2024/03/18 13:57:03;;;;;;;;;;;20.30;1.00;;;;;;5054831;28;19905;-67
2024/03/18 13:59:34;;;;;;;;;;;20.30;1.00;;;;;;5055108;28;20379;-68
2024/03/18 14:02:00;;;;;;;;;;;20.00;1.00;;;;;;5054625;28;19909;-67
2024/03/18 14:04:31;;;;;;;;;;;19.50;1.00;;;;;;5055063;28;19905;-67
2024/03/18 14:06:58;;;;;;;;;;;18.90;1.00;;;;;;5054417;28;19912;-67
2024/03/18 14:09:23;;;;;;;;;;;18.30;1.00;;;;;;5053461;28;19911;-68
2024/03/18 14:11:49;;;;;;;;;;;17.50;1.00;;;;;;5040228;28;19908;-68
2024/03/18 14:14:14;;;;;;;;;;;17.60;1.00;;;;;;5034675;28;20330;-66
2024/03/18 14:16:40;;;;;;;;;;;18.00;1.00;;;;;;5034008;28;19909;-68
2024/03/18 14:19:05;;;;;;;;;;;18.60;1.00;;;;;;5034711;28;19905;-66
2024/03/18 14:21:31;;;;;;;;;;;19.40;1.00;;;;;;5034834;28;20273;-67